sensor_id;sensor_type;location;lat;lon;timestamp;temperature;humidity
5842;DHT22;2947;52.276;9.946;2022-12-07T00:01:32;3.60;99.90
5842;DHT22;2947;52.276;9.946;2022-12-07T00:04:01;3.60;99.90
5842;DHT22;2947;52.276;9.946;2022-12-07T00:06:35;3.70;99.90
5842;DHT22;2947;52.276;9.946;2022-12-07T00:09:03;3.60;99.90
5842;DHT22;2947;52.276;9.946;2022-12-07T00:11:30;3.70;99.90
5842;DHT22;2947;52.276;9.946;2022-12-07T00:13:58;3.70;99.90
5842;DHT22;2947;52.276;9.946;2022-12-07T00:16:28;3.70;99.90
5842;DHT22;2947;52.276;9.946;2022-12-07T00:18:55;3.70;99.90
5842;DHT22;2947;52.276;9.946;2022-12-07T00:21:25;3.70;99.90
5842;DHT22;2947;52.276;9.946;2022-12-07T00:23:53;3.80;99.90
5842;DHT22;2947;52.276;9.946;2022-12-07T00:26:34;3.80;99.90
5842;DHT22;2947;52.276;9.946;2022-12-07T00:29:13;3.80;99.90
5842;DHT22;2947;52.276;9.946;2022-12-07T00:31:41;3.80;99.90
5842;DHT22;2947;52.276;9.946;2022-12-07T00:34:09;3.80;99.90
5842;DHT22;2947;52.276;9.946;2022-12-07T00:36:38;3.80;99.90
5842;DHT22;2947;52.276;9.946;2022-12-07T00:39:03;3.80;99.90
5842;DHT22;2947;52.276;9.946;2022-12-07T00:41:30;3.80;99.90
5842;DHT22;2947;52.276;9.946;2022-12-07T00:43:56;3.80;99.90
5842;DHT22;2947;52.276;9.946;2022-12-07T00:46:23;3.80;99.90
5842;DHT22;2947;52.276;9.946;2022-12-07T00:48:50;3.80;99.90
5842;DHT22;2947;52.276;9.946;2022-12-07T00:51:18;3.80;99.90
5842;DHT22;2947;52.276;9.946;2022-12-07T00:53:45;3.80;99.90
5842;DHT22;2947;52.276;9.946;2022-12-07T00:56:13;3.80;99.90
5842;DHT22;2947;52.276;9.946;2022-12-07T00:58:41;3.80;99.90
5842;DHT22;2947;52.276;9.946;2022-12-07T01:01:08;3.80;99.90
5842;DHT22;2947;52.276;9.946;2022-12-07T01:03:36;3.80;99.90
5842;DHT22;2947;52.276;9.946;2022-12-07T01:06:02;3.80;99.90
5842;DHT22;2947;52.276;9.946;2022-12-07T01:08:28;3.80;99.90
5842;DHT22;2947;52.276;9.946;2022-12-07T01:11:03;3.80;99.90
5842;DHT22;2947;52.276;9.946;2022-12-07T01:13:30;3.80;99.90
5842;DHT22;2947;52.276;9.946;2022-12-07T01:15:58;3.90;99.90
5842;DHT22;2947;52.276;9.946;2022-12-07T01:18:26;3.90;99.90
5842;DHT22;2947;52.276;9.946;2022-12-07T01:21:01;3.90;99.90
5842;DHT22;2947;52.276;9.946;2022-12-07T01:23:30;4.00;99.90
5842;DHT22;2947;52.276;9.946;2022-12-07T01:26:03;4.00;99.90
5842;DHT22;2947;52.276;9.946;2022-12-07T01:28:30;4.00;99.90
5842;DHT22;2947;52.276;9.946;2022-12-07T01:31:01;4.00;99.90
5842;DHT22;2947;52.276;9.946;2022-12-07T01:33:35;4.00;99.90
5842;DHT22;2947;52.276;9.946;2022-12-07T01:36:07;4.00;99.90
5842;DHT22;2947;52.276;9.946;2022-12-07T01:38:44;4.00;99.90
5842;DHT22;2947;52.276;9.946;2022-12-07T01:41:11;4.00;99.90
5842;DHT22;2947;52.276;9.946;2022-12-07T01:46:39;4.00;99.90
5842;DHT22;2947;52.276;9.946;2022-12-07T01:49:13;4.10;99.90
5842;DHT22;2947;52.276;9.946;2022-12-07T01:51:43;4.10;99.90
5842;DHT22;2947;52.276;9.946;2022-12-07T01:54:11;4.10;99.90
5842;DHT22;2947;52.276;9.946;2022-12-07T01:56:40;4.10;99.90
5842;DHT22;2947;52.276;9.946;2022-12-07T01:59:08;4.20;99.90
5842;DHT22;2947;52.276;9.946;2022-12-07T02:01:33;4.20;99.90
5842;DHT22;2947;52.276;9.946;2022-12-07T02:03:59;4.20;99.90
5842;DHT22;2947;52.276;9.946;2022-12-07T02:06:25;4.20;99.90
5842;DHT22;2947;52.276;9.946;2022-12-07T02:08:52;4.20;99.90
5842;DHT22;2947;52.276;9.946;2022-12-07T02:11:19;4.20;99.90
5842;DHT22;2947;52.276;9.946;2022-12-07T02:13:46;4.30;99.90
5842;DHT22;2947;52.276;9.946;2022-12-07T02:21:34;4.30;99.90
5842;DHT22;2947;52.276;9.946;2022-12-07T02:27:15;4.30;99.90
5842;DHT22;2947;52.276;9.946;2022-12-07T02:30:00;4.30;99.90
5842;DHT22;2947;52.276;9.946;2022-12-07T02:38:27;4.30;99.90
5842;DHT22;2947;52.276;9.946;2022-12-07T02:43:50;4.40;99.90
5842;DHT22;2947;52.276;9.946;2022-12-07T02:46:25;4.40;99.90
5842;DHT22;2947;52.276;9.946;2022-12-07T02:48:58;4.40;99.90
5842;DHT22;2947;52.276;9.946;2022-12-07T02:51:30;4.40;99.90
5842;DHT22;2947;52.276;9.946;2022-12-07T02:53:57;4.40;99.90
5842;DHT22;2947;52.276;9.946;2022-12-07T03:10:50;4.30;99.90
5842;DHT22;2947;52.276;9.946;2022-12-07T03:13:34;4.30;99.90
5842;DHT22;2947;52.276;9.946;2022-12-07T03:16:10;4.20;99.90
5842;DHT22;2947;52.276;9.946;2022-12-07T03:19:05;4.20;99.90
5842;DHT22;2947;52.276;9.946;2022-12-07T03:21:50;4.20;99.90
5842;DHT22;2947;52.276;9.946;2022-12-07T03:24:24;4.20;99.90
5842;DHT22;2947;52.276;9.946;2022-12-07T03:26:57;4.20;99.90
5842;DHT22;2947;52.276;9.946;2022-12-07T03:29:37;4.20;99.90
5842;DHT22;2947;52.276;9.946;2022-12-07T03:32:22;4.20;99.90
5842;DHT22;2947;52.276;9.946;2022-12-07T03:34:58;4.20;99.90
5842;DHT22;2947;52.276;9.946;2022-12-07T03:37:36;4.20;99.90
5842;DHT22;2947;52.276;9.946;2022-12-07T03:40:08;4.20;99.90
5842;DHT22;2947;52.276;9.946;2022-12-07T03:42:38;4.20;99.90
5842;DHT22;2947;52.276;9.946;2022-12-07T03:45:04;4.20;99.90
5842;DHT22;2947;52.276;9.946;2022-12-07T03:51:00;4.20;99.90
5842;DHT22;2947;52.276;9.946;2022-12-07T03:53:43;4.10;99.90
5842;DHT22;2947;52.276;9.946;2022-12-07T03:56:12;4.20;99.90
5842;DHT22;2947;52.276;9.946;2022-12-07T03:58:39;4.20;99.90
5842;DHT22;2947;52.276;9.946;2022-12-07T04:01:06;4.20;99.90
5842;DHT22;2947;52.276;9.946;2022-12-07T04:03:31;4.20;99.90
5842;DHT22;2947;52.276;9.946;2022-12-07T04:05:57;4.20;99.90
5842;DHT22;2947;52.276;9.946;2022-12-07T04:08:24;4.20;99.90
5842;DHT22;2947;52.276;9.946;2022-12-07T04:10:50;4.20;99.90
5842;DHT22;2947;52.276;9.946;2022-12-07T04:13:15;4.20;99.90
5842;DHT22;2947;52.276;9.946;2022-12-07T04:15:41;4.20;99.90
5842;DHT22;2947;52.276;9.946;2022-12-07T04:18:07;4.20;99.90
5842;DHT22;2947;52.276;9.946;2022-12-07T04:20:32;4.20;99.90
5842;DHT22;2947;52.276;9.946;2022-12-07T04:22:58;4.20;99.90
5842;DHT22;2947;52.276;9.946;2022-12-07T04:25:24;4.20;99.90
5842;DHT22;2947;52.276;9.946;2022-12-07T04:27:50;4.20;99.90
5842;DHT22;2947;52.276;9.946;2022-12-07T04:30:15;4.10;99.90
5842;DHT22;2947;52.276;9.946;2022-12-07T04:32:41;4.20;99.90
5842;DHT22;2947;52.276;9.946;2022-12-07T04:35:07;4.10;99.90
5842;DHT22;2947;52.276;9.946;2022-12-07T04:37:33;4.10;99.90
5842;DHT22;2947;52.276;9.946;2022-12-07T04:39:59;4.10;99.90
5842;DHT22;2947;52.276;9.946;2022-12-07T04:42:24;4.10;99.90
5842;DHT22;2947;52.276;9.946;2022-12-07T04:44:50;4.10;99.90
5842;DHT22;2947;52.276;9.946;2022-12-07T04:47:16;4.10;99.90
5842;DHT22;2947;52.276;9.946;2022-12-07T04:49:42;4.10;99.90
5842;DHT22;2947;52.276;9.946;2022-12-07T04:52:08;4.10;99.90
5842;DHT22;2947;52.276;9.946;2022-12-07T04:54:34;4.00;99.90
5842;DHT22;2947;52.276;9.946;2022-12-07T04:57:00;4.00;99.90
5842;DHT22;2947;52.276;9.946;2022-12-07T04:59:26;4.00;99.90
5842;DHT22;2947;52.276;9.946;2022-12-07T05:01:51;4.10;99.90
5842;DHT22;2947;52.276;9.946;2022-12-07T05:04:17;4.10;99.90
5842;DHT22;2947;52.276;9.946;2022-12-07T05:06:43;4.10;99.90
5842;DHT22;2947;52.276;9.946;2022-12-07T05:09:09;4.10;99.90
5842;DHT22;2947;52.276;9.946;2022-12-07T05:11:35;4.10;99.90
5842;DHT22;2947;52.276;9.946;2022-12-07T05:14:15;4.10;99.90
5842;DHT22;2947;52.276;9.946;2022-12-07T05:16:44;4.10;99.90
5842;DHT22;2947;52.276;9.946;2022-12-07T05:19:11;4.20;99.90
5842;DHT22;2947;52.276;9.946;2022-12-07T05:21:38;4.20;99.90
5842;DHT22;2947;52.276;9.946;2022-12-07T05:24:05;4.10;99.90
5842;DHT22;2947;52.276;9.946;2022-12-07T05:26:32;4.10;99.90
5842;DHT22;2947;52.276;9.946;2022-12-07T05:28:58;4.10;99.90
5842;DHT22;2947;52.276;9.946;2022-12-07T05:31:24;4.10;99.90
5842;DHT22;2947;52.276;9.946;2022-12-07T05:33:51;4.10;99.90
5842;DHT22;2947;52.276;9.946;2022-12-07T05:36:17;4.10;99.90
5842;DHT22;2947;52.276;9.946;2022-12-07T05:38:43;4.10;99.90
5842;DHT22;2947;52.276;9.946;2022-12-07T05:41:09;4.10;99.90
5842;DHT22;2947;52.276;9.946;2022-12-07T05:43:59;4.10;99.90
5842;DHT22;2947;52.276;9.946;2022-12-07T05:46:25;4.10;99.90
5842;DHT22;2947;52.276;9.946;2022-12-07T05:48:51;4.10;99.90
5842;DHT22;2947;52.276;9.946;2022-12-07T05:51:17;4.10;99.90
5842;DHT22;2947;52.276;9.946;2022-12-07T05:53:43;4.00;99.90
5842;DHT22;2947;52.276;9.946;2022-12-07T05:56:08;4.00;99.90
5842;DHT22;2947;52.276;9.946;2022-12-07T05:58:34;4.00;99.90
5842;DHT22;2947;52.276;9.946;2022-12-07T06:01:18;4.00;99.90
5842;DHT22;2947;52.276;9.946;2022-12-07T06:03:44;3.90;99.90
5842;DHT22;2947;52.276;9.946;2022-12-07T06:06:11;4.00;99.90
5842;DHT22;2947;52.276;9.946;2022-12-07T06:08:37;3.90;99.90
5842;DHT22;2947;52.276;9.946;2022-12-07T06:11:03;3.90;99.90
5842;DHT22;2947;52.276;9.946;2022-12-07T06:13:47;3.90;99.90
5842;DHT22;2947;52.276;9.946;2022-12-07T06:16:12;3.90;99.90
5842;DHT22;2947;52.276;9.946;2022-12-07T06:18:38;3.90;99.90
5842;DHT22;2947;52.276;9.946;2022-12-07T06:21:04;3.90;99.90
5842;DHT22;2947;52.276;9.946;2022-12-07T06:23:30;3.90;99.90
5842;DHT22;2947;52.276;9.946;2022-12-07T06:25:55;4.00;99.90
5842;DHT22;2947;52.276;9.946;2022-12-07T06:28:21;3.90;99.90
5842;DHT22;2947;52.276;9.946;2022-12-07T06:30:46;3.90;99.90
5842;DHT22;2947;52.276;9.946;2022-12-07T06:33:12;3.90;99.90
5842;DHT22;2947;52.276;9.946;2022-12-07T06:35:38;3.90;99.90
5842;DHT22;2947;52.276;9.946;2022-12-07T06:38:04;4.00;99.90
5842;DHT22;2947;52.276;9.946;2022-12-07T06:40:29;4.00;99.90
5842;DHT22;2947;52.276;9.946;2022-12-07T06:42:55;4.00;99.90
5842;DHT22;2947;52.276;9.946;2022-12-07T06:45:20;3.90;99.90
5842;DHT22;2947;52.276;9.946;2022-12-07T06:47:46;4.00;99.90
5842;DHT22;2947;52.276;9.946;2022-12-07T06:50:12;4.00;99.90
5842;DHT22;2947;52.276;9.946;2022-12-07T06:52:37;4.00;99.90
5842;DHT22;2947;52.276;9.946;2022-12-07T06:55:03;4.00;99.90
5842;DHT22;2947;52.276;9.946;2022-12-07T06:57:29;4.00;99.90
5842;DHT22;2947;52.276;9.946;2022-12-07T06:59:55;4.00;99.90
5842;DHT22;2947;52.276;9.946;2022-12-07T07:02:21;3.90;99.90
5842;DHT22;2947;52.276;9.946;2022-12-07T07:04:46;3.90;99.90
5842;DHT22;2947;52.276;9.946;2022-12-07T07:07:12;3.90;99.90
5842;DHT22;2947;52.276;9.946;2022-12-07T07:09:37;3.90;99.90
5842;DHT22;2947;52.276;9.946;2022-12-07T07:12:03;3.90;99.90
5842;DHT22;2947;52.276;9.946;2022-12-07T07:14:29;4.00;99.90
5842;DHT22;2947;52.276;9.946;2022-12-07T07:16:55;3.90;99.90
5842;DHT22;2947;52.276;9.946;2022-12-07T07:19:20;4.00;99.90
5842;DHT22;2947;52.276;9.946;2022-12-07T07:21:46;3.90;99.90
5842;DHT22;2947;52.276;9.946;2022-12-07T07:24:12;3.90;99.90
5842;DHT22;2947;52.276;9.946;2022-12-07T07:26:37;3.90;99.90
5842;DHT22;2947;52.276;9.946;2022-12-07T07:29:03;3.90;99.90
5842;DHT22;2947;52.276;9.946;2022-12-07T07:31:29;3.90;99.90
5842;DHT22;2947;52.276;9.946;2022-12-07T07:33:54;3.90;99.90
5842;DHT22;2947;52.276;9.946;2022-12-07T07:36:20;3.90;99.90
5842;DHT22;2947;52.276;9.946;2022-12-07T07:38:46;3.90;99.90
5842;DHT22;2947;52.276;9.946;2022-12-07T07:41:11;3.90;99.90
5842;DHT22;2947;52.276;9.946;2022-12-07T07:43:37;3.90;99.90
5842;DHT22;2947;52.276;9.946;2022-12-07T07:46:03;3.90;99.90
5842;DHT22;2947;52.276;9.946;2022-12-07T07:48:28;3.90;99.90
5842;DHT22;2947;52.276;9.946;2022-12-07T07:50:54;3.90;99.90
5842;DHT22;2947;52.276;9.946;2022-12-07T07:53:20;3.90;99.90
5842;DHT22;2947;52.276;9.946;2022-12-07T07:55:53;3.90;99.90
5842;DHT22;2947;52.276;9.946;2022-12-07T07:58:19;3.90;99.90
5842;DHT22;2947;52.276;9.946;2022-12-07T08:00:45;3.90;99.90
5842;DHT22;2947;52.276;9.946;2022-12-07T08:03:11;3.90;99.90
5842;DHT22;2947;52.276;9.946;2022-12-07T08:05:38;3.90;99.90
5842;DHT22;2947;52.276;9.946;2022-12-07T08:08:03;3.80;99.90
5842;DHT22;2947;52.276;9.946;2022-12-07T08:10:30;3.90;99.90
5842;DHT22;2947;52.276;9.946;2022-12-07T08:12:57;3.90;99.90
5842;DHT22;2947;52.276;9.946;2022-12-07T08:15:36;3.90;99.90
5842;DHT22;2947;52.276;9.946;2022-12-07T08:18:03;3.90;99.90
5842;DHT22;2947;52.276;9.946;2022-12-07T08:20:30;3.90;99.90
5842;DHT22;2947;52.276;9.946;2022-12-07T08:22:58;3.90;99.90
5842;DHT22;2947;52.276;9.946;2022-12-07T08:25:24;3.90;99.90
5842;DHT22;2947;52.276;9.946;2022-12-07T08:27:51;4.00;99.90
5842;DHT22;2947;52.276;9.946;2022-12-07T08:30:17;4.00;99.90
5842;DHT22;2947;52.276;9.946;2022-12-07T08:32:47;4.00;99.90
5842;DHT22;2947;52.276;9.946;2022-12-07T08:35:13;4.00;99.90
5842;DHT22;2947;52.276;9.946;2022-12-07T08:37:40;4.00;99.90
5842;DHT22;2947;52.276;9.946;2022-12-07T08:40:07;4.00;99.90
5842;DHT22;2947;52.276;9.946;2022-12-07T08:42:35;4.00;99.90
5842;DHT22;2947;52.276;9.946;2022-12-07T08:45:11;4.10;99.90
5842;DHT22;2947;52.276;9.946;2022-12-07T08:47:42;4.10;99.90
5842;DHT22;2947;52.276;9.946;2022-12-07T08:50:11;4.10;99.90
5842;DHT22;2947;52.276;9.946;2022-12-07T08:52:37;4.10;99.90
5842;DHT22;2947;52.276;9.946;2022-12-07T08:55:05;4.10;99.90
5842;DHT22;2947;52.276;9.946;2022-12-07T08:57:33;4.10;99.90
5842;DHT22;2947;52.276;9.946;2022-12-07T08:59:59;4.20;99.90
5842;DHT22;2947;52.276;9.946;2022-12-07T09:02:25;4.20;99.90
5842;DHT22;2947;52.276;9.946;2022-12-07T09:04:51;4.20;99.90
5842;DHT22;2947;52.276;9.946;2022-12-07T09:07:16;4.30;99.90
5842;DHT22;2947;52.276;9.946;2022-12-07T09:09:42;4.30;99.90
5842;DHT22;2947;52.276;9.946;2022-12-07T09:12:08;4.30;99.90
5842;DHT22;2947;52.276;9.946;2022-12-07T09:14:34;4.30;99.90
5842;DHT22;2947;52.276;9.946;2022-12-07T09:17:12;4.30;99.90
5842;DHT22;2947;52.276;9.946;2022-12-07T09:19:39;4.30;99.90
5842;DHT22;2947;52.276;9.946;2022-12-07T09:22:06;4.40;99.90
5842;DHT22;2947;52.276;9.946;2022-12-07T09:24:32;4.40;99.90
5842;DHT22;2947;52.276;9.946;2022-12-07T09:26:58;4.40;99.90
5842;DHT22;2947;52.276;9.946;2022-12-07T09:29:24;4.40;99.90
5842;DHT22;2947;52.276;9.946;2022-12-07T09:31:53;4.40;99.90
5842;DHT22;2947;52.276;9.946;2022-12-07T09:34:19;4.30;99.90
5842;DHT22;2947;52.276;9.946;2022-12-07T09:36:45;4.40;99.90
5842;DHT22;2947;52.276;9.946;2022-12-07T09:39:11;4.40;99.90
5842;DHT22;2947;52.276;9.946;2022-12-07T09:41:42;4.40;99.90
5842;DHT22;2947;52.276;9.946;2022-12-07T09:44:23;3.90;99.90
5842;DHT22;2947;52.276;9.946;2022-12-07T09:46:49;4.40;99.90
5842;DHT22;2947;52.276;9.946;2022-12-07T09:49:24;4.40;99.90
5842;DHT22;2947;52.276;9.946;2022-12-07T09:54:29;4.40;99.90
5842;DHT22;2947;52.276;9.946;2022-12-07T09:56:55;4.50;99.90
5842;DHT22;2947;52.276;9.946;2022-12-07T09:59:21;4.40;99.90
5842;DHT22;2947;52.276;9.946;2022-12-07T10:01:49;4.40;99.90
5842;DHT22;2947;52.276;9.946;2022-12-07T10:04:19;4.40;99.90
5842;DHT22;2947;52.276;9.946;2022-12-07T10:06:47;4.50;99.90
5842;DHT22;2947;52.276;9.946;2022-12-07T10:09:16;4.50;99.90
5842;DHT22;2947;52.276;9.946;2022-12-07T10:14:29;4.60;99.90
5842;DHT22;2947;52.276;9.946;2022-12-07T10:16:56;4.70;99.90
5842;DHT22;2947;52.276;9.946;2022-12-07T10:19:32;4.70;99.90
5842;DHT22;2947;52.276;9.946;2022-12-07T10:22:19;4.80;99.90
5842;DHT22;2947;52.276;9.946;2022-12-07T10:24:46;4.80;99.90
5842;DHT22;2947;52.276;9.946;2022-12-07T10:27:36;4.80;99.90
5842;DHT22;2947;52.276;9.946;2022-12-07T10:30:08;4.80;99.90
5842;DHT22;2947;52.276;9.946;2022-12-07T10:32:38;4.90;99.90
5842;DHT22;2947;52.276;9.946;2022-12-07T10:35:27;5.10;99.90
5842;DHT22;2947;52.276;9.946;2022-12-07T10:37:58;5.10;99.90
5842;DHT22;2947;52.276;9.946;2022-12-07T10:40:33;5.20;99.90
5842;DHT22;2947;52.276;9.946;2022-12-07T10:51:16;5.20;99.90
5842;DHT22;2947;52.276;9.946;2022-12-07T11:02:01;5.10;99.90
5842;DHT22;2947;52.276;9.946;2022-12-07T11:05:01;5.10;99.90
5842;DHT22;2947;52.276;9.946;2022-12-07T11:07:53;5.10;99.90
5842;DHT22;2947;52.276;9.946;2022-12-07T11:25:35;5.20;99.90
5842;DHT22;2947;52.276;9.946;2022-12-07T11:31:22;5.10;99.90
5842;DHT22;2947;52.276;9.946;2022-12-07T11:33:59;5.10;99.90
5842;DHT22;2947;52.276;9.946;2022-12-07T11:36:44;5.10;99.90
5842;DHT22;2947;52.276;9.946;2022-12-07T11:41:48;4.90;99.90
5842;DHT22;2947;52.276;9.946;2022-12-07T11:50:05;4.60;99.90
5842;DHT22;2947;52.276;9.946;2022-12-07T11:53:00;4.50;99.90
5842;DHT22;2947;52.276;9.946;2022-12-07T12:01:31;4.10;99.90
5842;DHT22;2947;52.276;9.946;2022-12-07T12:04:16;4.10;99.90
5842;DHT22;2947;52.276;9.946;2022-12-07T12:06:48;4.00;99.90
5842;DHT22;2947;52.276;9.946;2022-12-07T12:09:39;4.00;99.90
5842;DHT22;2947;52.276;9.946;2022-12-07T12:21:26;3.90;99.90
5842;DHT22;2947;52.276;9.946;2022-12-07T12:24:09;4.10;99.90
5842;DHT22;2947;52.276;9.946;2022-12-07T12:26:38;4.10;99.90
5842;DHT22;2947;52.276;9.946;2022-12-07T12:29:21;4.20;99.90
5842;DHT22;2947;52.276;9.946;2022-12-07T12:32:17;4.20;99.90
5842;DHT22;2947;52.276;9.946;2022-12-07T12:42:56;4.40;99.90
5842;DHT22;2947;52.276;9.946;2022-12-07T12:45:28;4.50;99.90
5842;DHT22;2947;52.276;9.946;2022-12-07T12:48:28;4.50;99.90
5842;DHT22;2947;52.276;9.946;2022-12-07T12:54:23;4.60;99.90
5842;DHT22;2947;52.276;9.946;2022-12-07T13:02:32;4.70;99.90
5842;DHT22;2947;52.276;9.946;2022-12-07T13:15:37;4.70;99.90
5842;DHT22;2947;52.276;9.946;2022-12-07T13:21:39;4.80;99.90
5842;DHT22;2947;52.276;9.946;2022-12-07T13:24:16;4.80;99.90
5842;DHT22;2947;52.276;9.946;2022-12-07T13:26:43;4.80;99.90
5842;DHT22;2947;52.276;9.946;2022-12-07T13:31:56;4.80;99.90
5842;DHT22;2947;52.276;9.946;2022-12-07T13:34:36;4.80;99.90
5842;DHT22;2947;52.276;9.946;2022-12-07T13:37:26;4.80;99.90
5842;DHT22;2947;52.276;9.946;2022-12-07T13:39:55;4.80;99.90
5842;DHT22;2947;52.276;9.946;2022-12-07T13:42:33;4.90;99.90
5842;DHT22;2947;52.276;9.946;2022-12-07T13:45:13;4.90;99.90
5842;DHT22;2947;52.276;9.946;2022-12-07T13:47:52;4.80;99.90
5842;DHT22;2947;52.276;9.946;2022-12-07T13:50:28;4.80;99.90
5842;DHT22;2947;52.276;9.946;2022-12-07T13:53:00;6.20;99.90
5842;DHT22;2947;52.276;9.946;2022-12-07T13:55:28;4.80;99.90
5842;DHT22;2947;52.276;9.946;2022-12-07T13:57:55;4.80;99.90
5842;DHT22;2947;52.276;9.946;2022-12-07T14:00:21;4.80;99.90
5842;DHT22;2947;52.276;9.946;2022-12-07T14:02:59;4.80;99.90
5842;DHT22;2947;52.276;9.946;2022-12-07T14:05:30;4.80;99.90
5842;DHT22;2947;52.276;9.946;2022-12-07T14:08:03;4.80;99.90
5842;DHT22;2947;52.276;9.946;2022-12-07T14:10:32;4.80;99.90
5842;DHT22;2947;52.276;9.946;2022-12-07T14:13:00;4.80;99.90
5842;DHT22;2947;52.276;9.946;2022-12-07T14:15:30;4.70;99.90
5842;DHT22;2947;52.276;9.946;2022-12-07T14:18:00;4.70;99.90
5842;DHT22;2947;52.276;9.946;2022-12-07T14:23:04;4.70;99.90
5842;DHT22;2947;52.276;9.946;2022-12-07T14:25:48;4.70;99.90
5842;DHT22;2947;52.276;9.946;2022-12-07T14:28:29;4.70;99.90
5842;DHT22;2947;52.276;9.946;2022-12-07T14:30:58;4.70;99.90
5842;DHT22;2947;52.276;9.946;2022-12-07T14:33:24;4.70;99.90
5842;DHT22;2947;52.276;9.946;2022-12-07T14:35:51;4.70;99.90
5842;DHT22;2947;52.276;9.946;2022-12-07T14:38:21;4.70;99.90
5842;DHT22;2947;52.276;9.946;2022-12-07T14:40:47;4.70;99.90
5842;DHT22;2947;52.276;9.946;2022-12-07T14:43:16;4.70;99.90
5842;DHT22;2947;52.276;9.946;2022-12-07T14:45:42;4.70;99.90
5842;DHT22;2947;52.276;9.946;2022-12-07T14:48:11;4.70;99.90
5842;DHT22;2947;52.276;9.946;2022-12-07T14:50:42;4.70;99.90
5842;DHT22;2947;52.276;9.946;2022-12-07T14:53:14;4.60;99.90
5842;DHT22;2947;52.276;9.946;2022-12-07T14:55:44;4.60;99.90
5842;DHT22;2947;52.276;9.946;2022-12-07T14:58:14;4.60;99.90
5842;DHT22;2947;52.276;9.946;2022-12-07T15:00:41;4.60;99.90
5842;DHT22;2947;52.276;9.946;2022-12-07T15:03:07;4.60;99.90
5842;DHT22;2947;52.276;9.946;2022-12-07T15:05:33;4.50;99.90
5842;DHT22;2947;52.276;9.946;2022-12-07T15:07:59;4.50;99.90
5842;DHT22;2947;52.276;9.946;2022-12-07T15:10:28;4.50;99.90
5842;DHT22;2947;52.276;9.946;2022-12-07T15:13:02;4.50;99.90
5842;DHT22;2947;52.276;9.946;2022-12-07T15:15:53;4.50;99.90
5842;DHT22;2947;52.276;9.946;2022-12-07T15:18:20;4.50;99.90
5842;DHT22;2947;52.276;9.946;2022-12-07T15:20:47;4.50;99.90
5842;DHT22;2947;52.276;9.946;2022-12-07T15:23:13;4.50;99.90
5842;DHT22;2947;52.276;9.946;2022-12-07T15:25:41;4.40;99.90
5842;DHT22;2947;52.276;9.946;2022-12-07T15:28:08;4.50;99.90
5842;DHT22;2947;52.276;9.946;2022-12-07T15:30:33;4.40;99.90
5842;DHT22;2947;52.276;9.946;2022-12-07T15:32:59;4.40;99.90
5842;DHT22;2947;52.276;9.946;2022-12-07T15:35:31;4.40;99.90
5842;DHT22;2947;52.276;9.946;2022-12-07T15:37:57;4.40;99.90
5842;DHT22;2947;52.276;9.946;2022-12-07T15:40:23;4.30;99.90
5842;DHT22;2947;52.276;9.946;2022-12-07T15:42:48;4.30;99.90
5842;DHT22;2947;52.276;9.946;2022-12-07T15:45:14;4.20;99.90
5842;DHT22;2947;52.276;9.946;2022-12-07T15:47:42;4.20;99.90
5842;DHT22;2947;52.276;9.946;2022-12-07T15:50:13;4.20;99.90
5842;DHT22;2947;52.276;9.946;2022-12-07T15:52:39;4.20;99.90
5842;DHT22;2947;52.276;9.946;2022-12-07T15:55:06;4.20;99.90
5842;DHT22;2947;52.276;9.946;2022-12-07T15:57:34;4.10;99.90
5842;DHT22;2947;52.276;9.946;2022-12-07T16:00:01;4.10;99.90
5842;DHT22;2947;52.276;9.946;2022-12-07T16:02:26;4.10;99.90
5842;DHT22;2947;52.276;9.946;2022-12-07T16:04:52;4.00;99.90
5842;DHT22;2947;52.276;9.946;2022-12-07T16:07:18;4.10;99.90
5842;DHT22;2947;52.276;9.946;2022-12-07T16:09:46;4.00;99.90
5842;DHT22;2947;52.276;9.946;2022-12-07T16:12:12;4.10;99.90
5842;DHT22;2947;52.276;9.946;2022-12-07T16:14:39;4.10;99.90
5842;DHT22;2947;52.276;9.946;2022-12-07T16:17:06;4.00;99.90
5842;DHT22;2947;52.276;9.946;2022-12-07T16:19:33;4.00;99.90
5842;DHT22;2947;52.276;9.946;2022-12-07T16:21:59;4.00;99.90
5842;DHT22;2947;52.276;9.946;2022-12-07T16:24:26;3.90;99.90
5842;DHT22;2947;52.276;9.946;2022-12-07T16:26:52;3.90;99.90
5842;DHT22;2947;52.276;9.946;2022-12-07T16:29:20;3.90;99.90
5842;DHT22;2947;52.276;9.946;2022-12-07T16:31:47;3.90;99.90
5842;DHT22;2947;52.276;9.946;2022-12-07T16:34:13;3.90;99.90
5842;DHT22;2947;52.276;9.946;2022-12-07T16:36:38;3.80;99.90
5842;DHT22;2947;52.276;9.946;2022-12-07T16:39:05;3.80;99.90
5842;DHT22;2947;52.276;9.946;2022-12-07T16:41:31;3.80;99.90
5842;DHT22;2947;52.276;9.946;2022-12-07T16:43:57;3.80;99.90
5842;DHT22;2947;52.276;9.946;2022-12-07T16:46:27;3.80;99.90
5842;DHT22;2947;52.276;9.946;2022-12-07T16:48:53;3.80;99.90
5842;DHT22;2947;52.276;9.946;2022-12-07T16:51:19;3.70;99.90
5842;DHT22;2947;52.276;9.946;2022-12-07T16:53:44;3.60;99.90
5842;DHT22;2947;52.276;9.946;2022-12-07T16:56:12;3.60;99.90
5842;DHT22;2947;52.276;9.946;2022-12-07T16:58:40;3.60;99.90
5842;DHT22;2947;52.276;9.946;2022-12-07T17:01:12;3.60;99.90
5842;DHT22;2947;52.276;9.946;2022-12-07T17:03:40;3.60;99.90
5842;DHT22;2947;52.276;9.946;2022-12-07T17:06:17;3.50;99.90
5842;DHT22;2947;52.276;9.946;2022-12-07T17:08:44;3.50;99.90
5842;DHT22;2947;52.276;9.946;2022-12-07T17:11:15;3.50;99.90
5842;DHT22;2947;52.276;9.946;2022-12-07T17:13:43;3.50;99.90
5842;DHT22;2947;52.276;9.946;2022-12-07T17:16:28;3.50;99.90
5842;DHT22;2947;52.276;9.946;2022-12-07T17:18:54;3.50;99.90
5842;DHT22;2947;52.276;9.946;2022-12-07T17:21:20;3.50;99.90
5842;DHT22;2947;52.276;9.946;2022-12-07T17:23:46;3.50;99.90
5842;DHT22;2947;52.276;9.946;2022-12-07T17:26:18;3.50;99.90
5842;DHT22;2947;52.276;9.946;2022-12-07T17:28:45;3.50;99.90
5842;DHT22;2947;52.276;9.946;2022-12-07T17:31:13;3.40;99.90
5842;DHT22;2947;52.276;9.946;2022-12-07T17:33:40;3.50;99.90
5842;DHT22;2947;52.276;9.946;2022-12-07T17:36:14;3.60;99.90
5842;DHT22;2947;52.276;9.946;2022-12-07T17:38:44;3.60;99.90
5842;DHT22;2947;52.276;9.946;2022-12-07T17:41:18;3.60;99.90
5842;DHT22;2947;52.276;9.946;2022-12-07T17:44:04;3.60;99.90
5842;DHT22;2947;52.276;9.946;2022-12-07T17:46:32;3.70;99.90
5842;DHT22;2947;52.276;9.946;2022-12-07T17:48:59;3.70;99.90
5842;DHT22;2947;52.276;9.946;2022-12-07T17:51:25;3.70;99.90
5842;DHT22;2947;52.276;9.946;2022-12-07T17:54:10;3.80;99.90
5842;DHT22;2947;52.276;9.946;2022-12-07T17:56:37;3.80;99.90
5842;DHT22;2947;52.276;9.946;2022-12-07T17:59:04;3.80;99.90
5842;DHT22;2947;52.276;9.946;2022-12-07T18:01:31;3.90;99.90
5842;DHT22;2947;52.276;9.946;2022-12-07T18:03:57;3.90;99.90
5842;DHT22;2947;52.276;9.946;2022-12-07T18:06:23;3.90;99.90
5842;DHT22;2947;52.276;9.946;2022-12-07T18:08:48;3.90;99.90
5842;DHT22;2947;52.276;9.946;2022-12-07T18:11:14;3.90;99.90
5842;DHT22;2947;52.276;9.946;2022-12-07T18:13:40;3.90;99.90
5842;DHT22;2947;52.276;9.946;2022-12-07T18:16:12;3.90;99.90
5842;DHT22;2947;52.276;9.946;2022-12-07T18:18:40;3.80;99.90
5842;DHT22;2947;52.276;9.946;2022-12-07T18:21:23;3.70;99.90
5842;DHT22;2947;52.276;9.946;2022-12-07T18:23:52;3.60;99.90
5842;DHT22;2947;52.276;9.946;2022-12-07T18:26:20;3.60;99.90
5842;DHT22;2947;52.276;9.946;2022-12-07T18:28:46;3.60;99.90
5842;DHT22;2947;52.276;9.946;2022-12-07T18:31:12;3.60;99.90
5842;DHT22;2947;52.276;9.946;2022-12-07T18:33:39;3.60;99.90
5842;DHT22;2947;52.276;9.946;2022-12-07T18:36:06;3.70;99.90
5842;DHT22;2947;52.276;9.946;2022-12-07T18:38:33;3.60;99.90
5842;DHT22;2947;52.276;9.946;2022-12-07T18:41:00;3.60;99.90
5842;DHT22;2947;52.276;9.946;2022-12-07T18:43:27;3.60;99.90
5842;DHT22;2947;52.276;9.946;2022-12-07T18:45:53;3.60;99.90
5842;DHT22;2947;52.276;9.946;2022-12-07T18:48:20;3.70;99.90
5842;DHT22;2947;52.276;9.946;2022-12-07T18:50:49;3.70;99.90